createdAt,value
2022-09-06T00:00:57.321Z,20.23
2022-09-06T00:03:24.877Z,20.14
2022-09-06T00:05:52.175Z,20.09
2022-09-06T00:08:19.079Z,19.97
2022-09-06T00:10:45.946Z,19.84
2022-09-06T00:13:12.914Z,19.75
2022-09-06T00:15:41.198Z,19.66
2022-09-06T00:18:08.377Z,19.62
2022-09-06T00:20:38.592Z,19.66
2022-09-06T00:23:07.199Z,19.77
2022-09-06T00:25:35.412Z,19.83
2022-09-06T00:28:05.622Z,19.88
2022-09-06T00:30:33.763Z,19.92
2022-09-06T00:33:02.142Z,19.91
2022-09-06T00:35:29.664Z,19.91
2022-09-06T00:37:58.650Z,19.92
2022-09-06T00:40:27.148Z,19.93
2022-09-06T00:42:54.275Z,19.90
2022-09-06T00:45:22.976Z,19.94
2022-09-06T00:47:50.569Z,19.95
2022-09-06T00:50:19.870Z,19.91
2022-09-06T00:52:52.092Z,19.81
2022-09-06T00:55:21.341Z,19.78
2022-09-06T00:57:49.708Z,19.78
2022-09-06T01:00:19.238Z,19.70
2022-09-06T01:02:46.811Z,19.76
2022-09-06T01:05:15.167Z,19.79
2022-09-06T01:08:02.247Z,19.80
2022-09-06T01:11:01.851Z,19.71
2022-09-06T01:13:43.323Z,19.71
2022-09-06T01:16:21.335Z,19.67
2022-09-06T01:19:26.850Z,19.68
2022-09-06T01:22:08.624Z,19.58
2022-09-06T01:25:14.460Z,19.35
2022-09-06T01:28:26.332Z,19.38
2022-09-06T01:31:07.313Z,19.33
2022-09-06T01:33:45.980Z,19.28
2022-09-06T01:36:20.853Z,19.32
2022-09-06T01:38:47.759Z,19.33
2022-09-06T01:41:14.858Z,19.33
2022-09-06T01:43:50.345Z,19.35
2022-09-06T01:46:32.549Z,19.39
2022-09-06T01:49:22.841Z,19.39
2022-09-06T01:52:10.030Z,19.37
2022-09-06T01:55:05.386Z,19.36
2022-09-06T01:57:54.982Z,19.33
2022-09-06T02:00:23.958Z,19.32
2022-09-06T02:03:05.638Z,19.33
2022-09-06T02:05:41.430Z,19.39
2022-09-06T02:08:17.400Z,19.42
2022-09-06T02:10:53.675Z,19.42
2022-09-06T02:13:26.013Z,19.42
2022-09-06T02:16:01.774Z,19.46
2022-09-06T02:18:38.058Z,19.59
2022-09-06T02:21:10.945Z,19.73
2022-09-06T02:23:42.908Z,19.82
2022-09-06T02:26:17.363Z,19.60
2022-09-06T02:28:44.553Z,19.51
2022-09-06T02:31:22.573Z,19.54
2022-09-06T02:33:51.986Z,19.67
2022-09-06T02:36:19.756Z,19.73
2022-09-06T02:38:47.236Z,19.72
2022-09-06T02:41:19.336Z,19.81
2022-09-06T02:43:46.263Z,19.83
2022-09-06T02:46:15.102Z,19.97
2022-09-06T02:48:42.196Z,20.08
2022-09-06T02:51:09.952Z,20.06
2022-09-06T02:53:37.331Z,20.10
2022-09-06T02:56:04.704Z,20.12
2022-09-06T02:58:31.673Z,19.80
2022-09-06T03:00:58.905Z,19.60
2022-09-06T03:03:27.793Z,19.30
2022-09-06T03:05:55.375Z,19.19
2022-09-06T03:08:24.481Z,19.30
2022-09-06T03:10:53.449Z,19.44
2022-09-06T03:13:20.997Z,19.46
2022-09-06T03:15:51.109Z,19.56
2022-09-06T03:18:18.462Z,19.58
2022-09-06T03:20:49.368Z,19.66
2022-09-06T03:23:16.350Z,19.70
2022-09-06T03:25:43.823Z,19.73
2022-09-06T03:28:11.839Z,19.71
2022-09-06T03:30:39.675Z,19.75
2022-09-06T03:33:06.793Z,19.77
2022-09-06T03:35:34.123Z,19.79
2022-09-06T03:38:02.533Z,19.75
2022-09-06T03:40:29.422Z,19.47
2022-09-06T03:42:56.571Z,19.03
2022-09-06T03:45:23.467Z,18.85
2022-09-06T03:47:50.628Z,18.69
2022-09-06T03:50:17.651Z,18.66
2022-09-06T03:52:44.539Z,18.69
2022-09-06T03:55:12.992Z,18.61
2022-09-06T03:57:39.830Z,18.68
2022-09-06T04:00:08.573Z,18.78
2022-09-06T04:02:40.459Z,18.82
2022-09-06T04:05:08.412Z,18.94
2022-09-06T04:07:35.310Z,19.03
2022-09-06T04:10:02.126Z,19.12
2022-09-06T04:12:30.734Z,18.82
2022-09-06T04:14:57.540Z,18.93
2022-09-06T04:17:24.397Z,18.29
2022-09-06T04:19:51.313Z,18.25
2022-09-06T04:22:18.254Z,18.43
2022-09-06T04:24:45.106Z,18.55
2022-09-06T04:27:12.215Z,18.71
2022-09-06T04:29:40.862Z,18.82
2022-09-06T04:32:08.167Z,18.89
2022-09-06T04:34:50.946Z,18.97
2022-09-06T04:37:18.344Z,18.99
2022-09-06T04:39:45.399Z,19.06
2022-09-06T04:42:12.681Z,19.08
2022-09-06T04:44:41.600Z,19.14
2022-09-06T04:47:13.448Z,19.17
2022-09-06T04:49:40.940Z,19.17
2022-09-06T04:52:08.363Z,19.18
2022-09-06T04:54:35.393Z,19.18
2022-09-06T04:57:02.410Z,18.69
2022-09-06T04:59:55.033Z,18.46
2022-09-06T05:02:28.139Z,18.05
2022-09-06T05:04:55.173Z,17.92
2022-09-06T05:07:22.348Z,17.96
2022-09-06T05:09:49.324Z,18.02
2022-09-06T05:12:16.506Z,17.76
2022-09-06T05:14:43.705Z,17.67
2022-09-06T05:17:10.746Z,17.74
2022-09-06T05:19:39.330Z,17.93
2022-09-06T05:22:06.607Z,18.10
2022-09-06T05:24:33.485Z,18.33
2022-09-06T05:27:00.877Z,18.35
2022-09-06T05:29:30.620Z,18.12
2022-09-06T05:32:00.443Z,18.14
2022-09-06T05:34:28.914Z,18.48
2022-09-06T05:36:57.227Z,18.81
2022-09-06T05:39:24.251Z,19.42
2022-09-06T05:41:51.185Z,19.98
2022-09-06T05:44:18.434Z,20.58
2022-09-06T05:46:48.445Z,21.09
2022-09-06T05:49:15.813Z,21.15
2022-09-06T05:51:42.793Z,21.22
2022-09-06T05:54:12.156Z,21.16
2022-09-06T05:56:39.530Z,21.15
2022-09-06T05:59:06.429Z,21.11
2022-09-06T06:01:33.732Z,21.11
2022-09-06T06:04:03.894Z,21.09
2022-09-06T06:06:33.216Z,21.05
2022-09-06T06:09:00.980Z,20.99
2022-09-06T06:11:31.178Z,20.94
2022-09-06T06:14:05.145Z,20.86
2022-09-06T06:20:42.328Z,20.78
2022-09-06T06:23:09.891Z,20.73
2022-09-06T06:25:36.804Z,20.79
2022-09-06T06:28:05.218Z,20.78
2022-09-06T06:30:32.138Z,20.65
2022-09-06T06:33:03.630Z,20.53
2022-09-06T06:35:30.576Z,20.27
2022-09-06T06:37:57.558Z,20.21
2022-09-06T06:40:24.403Z,20.14
2022-09-06T06:42:51.870Z,19.75
2022-09-06T06:45:20.133Z,19.49
2022-09-06T06:47:49.867Z,19.25
2022-09-06T06:50:16.961Z,19.27
2022-09-06T06:52:44.454Z,19.30
2022-09-06T06:55:14.746Z,19.39
2022-09-06T06:57:42.115Z,19.17
2022-09-06T07:00:11.620Z,19.16
2022-09-06T07:02:40.080Z,19.31
2022-09-06T07:08:00.988Z,19.63
2022-09-06T07:10:35.346Z,19.74
2022-09-06T07:13:02.610Z,20.26
2022-09-06T07:15:29.647Z,20.82
2022-09-06T07:17:58.405Z,22.07
2022-09-06T07:20:25.432Z,24.04
2022-09-06T07:25:47.129Z,26.25
2022-09-06T07:28:14.369Z,27.55
2022-09-06T07:30:42.596Z,28.42
2022-09-06T07:33:11.674Z,28.29
2022-09-06T07:35:38.589Z,27.47
2022-09-06T07:38:05.541Z,25.54
2022-09-06T07:40:32.733Z,24.59
2022-09-06T07:43:00.186Z,24.63
2022-09-06T07:45:27.636Z,23.50
2022-09-06T07:53:15.393Z,23.51
2022-09-06T07:55:45.127Z,24.79
2022-09-06T07:58:12.031Z,25.71
2022-09-06T08:00:39.050Z,26.12
2022-09-06T08:03:06.324Z,28.26
2022-09-06T08:11:34.001Z,27.44
2022-09-06T08:14:06.603Z,26.60
2022-09-06T08:16:36.223Z,26.28
2022-09-06T08:19:06.088Z,26.28
2022-09-06T08:21:36.970Z,24.83
2022-09-06T08:24:08.424Z,24.61
2022-09-06T08:26:37.790Z,24.55
2022-09-06T08:29:10.367Z,25.57
2022-09-06T08:31:47.770Z,26.25
2022-09-06T08:41:43.435Z,25.30
2022-09-06T08:45:32.420Z,25.60
2022-09-06T08:48:41.191Z,26.19
2022-09-06T08:51:46.514Z,26.91
2022-09-06T08:54:27.205Z,27.18
2022-09-06T08:57:14.658Z,26.87
2022-09-06T08:59:50.628Z,28.17
2022-09-06T09:02:21.954Z,28.23
2022-09-06T09:05:06.489Z,28.76
2022-09-06T09:08:05.850Z,28.14
2022-09-06T09:10:42.549Z,28.50
2022-09-06T09:13:27.476Z,28.08
2022-09-06T09:15:55.312Z,27.23
2022-09-06T09:18:33.701Z,26.14
2022-09-06T09:21:02.008Z,27.39
2022-09-06T09:23:37.624Z,28.55
2022-09-06T09:26:16.156Z,29.46
2022-09-06T09:29:11.163Z,29.97
2022-09-06T09:31:41.753Z,29.51
2022-09-06T09:34:30.718Z,28.95
2022-09-06T09:40:16.994Z,27.11
2022-09-06T09:53:24.706Z,28.03
2022-09-06T09:55:57.738Z,28.90
2022-09-06T09:58:36.761Z,30.51
2022-09-06T10:04:44.256Z,32.68
2022-09-06T10:07:16.416Z,31.40
2022-09-06T10:10:02.642Z,32.75
2022-09-06T10:12:33.576Z,33.76
2022-09-06T10:15:06.930Z,34.41
2022-09-06T10:17:37.487Z,33.69
2022-09-06T10:20:10.177Z,34.22
2022-09-06T10:22:56.907Z,34.11
2022-09-06T10:25:49.069Z,34.57
2022-09-06T10:28:33.467Z,35.47
2022-09-06T10:31:35.036Z,36.01
2022-09-06T10:34:32.538Z,35.75
2022-09-06T10:37:17.367Z,35.02
2022-09-06T10:39:55.295Z,34.71
2022-09-06T10:42:48.104Z,34.54
2022-09-06T10:46:21.589Z,34.08
2022-09-06T10:49:18.255Z,33.15
2022-09-06T10:51:52.244Z,32.98
2022-09-06T10:54:23.276Z,33.20
2022-09-06T11:00:18.351Z,32.26
2022-09-06T11:10:49.109Z,33.17
2022-09-06T11:26:27.425Z,32.53
2022-09-06T11:28:58.452Z,32.69
2022-09-06T11:34:37.900Z,33.67
2022-09-06T11:37:23.216Z,34.60
2022-09-06T11:40:29.940Z,35.17
2022-09-06T11:43:54.552Z,36.24
2022-09-06T11:47:01.594Z,33.59
2022-09-06T11:49:35.717Z,34.85
2022-09-06T11:53:00.984Z,34.87
2022-09-06T11:55:51.273Z,34.12
2022-09-06T11:58:36.887Z,34.17
2022-09-06T12:34:40.204Z,31.69
2022-09-06T12:42:24.546Z,31.63
2022-09-06T13:00:11.894Z,31.21
2022-09-06T13:08:24.248Z,31.31
2022-09-06T13:10:52.611Z,31.32
2022-09-06T13:13:26.133Z,31.34
2022-09-06T13:15:54.068Z,31.32
2022-09-06T13:18:47.367Z,30.72
2022-09-06T13:21:28.313Z,30.83
2022-09-06T13:24:52.616Z,30.98
2022-09-06T14:14:12.891Z,29.38
2022-09-06T14:16:46.335Z,29.67
2022-09-06T14:19:18.801Z,29.87
2022-09-06T14:21:55.823Z,30.02
2022-09-06T14:24:25.815Z,29.34
2022-09-06T14:28:12.078Z,29.44
2022-09-06T14:44:16.800Z,28.27
2022-09-06T14:46:44.781Z,28.46
2022-09-06T14:49:37.267Z,28.43
2022-09-06T14:52:05.462Z,28.34
2022-09-06T14:54:33.964Z,28.32
2022-09-06T14:57:06.504Z,28.47
2022-09-06T14:59:35.479Z,28.59
2022-09-06T15:02:04.925Z,28.83
2022-09-06T15:04:35.959Z,28.86
2022-09-06T15:07:11.995Z,28.85
2022-09-06T15:09:54.800Z,28.82
2022-09-06T15:12:36.140Z,28.50
2022-09-06T15:15:33.154Z,28.50
2022-09-06T15:18:04.021Z,28.43
2022-09-06T15:20:50.967Z,28.20
2022-09-06T15:23:25.791Z,28.25
2022-09-06T15:26:09.191Z,28.51
2022-09-06T15:28:37.133Z,28.41
2022-09-06T15:38:04.429Z,28.37
2022-09-06T15:40:31.640Z,28.56
2022-09-06T15:42:58.905Z,28.48
2022-09-06T15:45:26.394Z,28.47
2022-09-06T15:47:55.160Z,28.44
2022-09-06T16:06:58.942Z,28.51
2022-09-06T16:09:33.126Z,28.46
2022-09-06T16:12:01.094Z,28.41
2022-09-06T16:15:08.602Z,28.49
2022-09-06T16:17:42.273Z,28.59
2022-09-06T16:20:20.400Z,28.49
2022-09-06T16:22:50.345Z,28.46
2022-09-06T16:25:18.582Z,28.31
2022-09-06T16:27:49.224Z,28.18
2022-09-06T16:30:16.403Z,28.22
2022-09-06T16:32:43.672Z,28.29
2022-09-06T16:35:10.635Z,28.13
2022-09-06T16:37:46.890Z,27.89
2022-09-06T16:40:18.142Z,27.93
2022-09-06T16:42:45.780Z,27.93
2022-09-06T16:45:42.202Z,27.91
2022-09-06T16:48:11.427Z,27.88
2022-09-06T16:50:38.454Z,27.78
2022-09-06T16:53:05.454Z,27.75
2022-09-06T16:55:36.877Z,27.76
2022-09-06T16:58:56.253Z,27.73
2022-09-06T17:01:33.572Z,27.74
2022-09-06T17:04:02.595Z,27.83
2022-09-06T17:06:31.190Z,27.64
2022-09-06T17:08:59.277Z,27.75
2022-09-06T17:11:29.125Z,27.82
2022-09-06T17:13:57.405Z,27.80
2022-09-06T17:16:27.085Z,27.76
2022-09-06T17:19:00.242Z,27.65
2022-09-06T17:21:30.087Z,27.69
2022-09-06T17:23:58.081Z,27.53
2022-09-06T17:26:25.236Z,27.43
2022-09-06T17:28:53.905Z,27.11
2022-09-06T17:31:25.633Z,27.06
2022-09-06T17:33:53.663Z,26.96
2022-09-06T17:36:24.011Z,26.81
2022-09-06T17:38:54.518Z,26.66
2022-09-06T17:41:25.000Z,26.71
2022-09-06T17:43:54.894Z,26.65
2022-09-06T17:46:27.819Z,26.62
2022-09-06T17:48:59.423Z,26.52
2022-09-06T17:51:27.152Z,26.44
2022-09-06T17:53:55.307Z,26.49
2022-09-06T17:56:22.682Z,26.42
2022-09-06T17:58:56.961Z,26.41
2022-09-06T18:01:26.599Z,26.30
2022-09-06T18:03:54.299Z,26.18
2022-09-06T18:13:30.690Z,25.82
2022-09-06T18:16:34.713Z,25.67
2022-09-06T18:19:05.578Z,25.40
2022-09-06T18:21:39.645Z,25.23
2022-09-06T18:24:09.604Z,25.22
2022-09-06T18:26:37.551Z,25.25
2022-09-06T18:29:06.931Z,25.14
2022-09-06T18:31:35.528Z,25.09
2022-09-06T18:34:03.759Z,24.73
2022-09-06T18:37:05.581Z,24.82
2022-09-06T18:39:39.489Z,24.83
2022-09-06T18:42:48.966Z,24.84
2022-09-06T18:46:21.770Z,24.57
2022-09-06T18:48:58.189Z,24.54
2022-09-06T18:51:27.982Z,24.59
2022-09-06T18:54:02.235Z,24.55
2022-09-06T18:56:30.404Z,24.45
2022-09-06T18:59:16.207Z,24.48
2022-09-06T19:01:43.952Z,24.32
2022-09-06T19:04:45.771Z,24.41
2022-09-06T19:36:11.885Z,23.35
2022-09-06T19:39:02.103Z,23.19
2022-09-06T19:41:36.359Z,23.15
2022-09-06T19:44:04.367Z,23.09
2022-09-06T19:46:31.946Z,23.03
2022-09-06T19:48:58.933Z,23.05
2022-09-06T19:51:27.776Z,23.09
2022-09-06T19:53:58.866Z,23.07
2022-09-06T19:56:33.365Z,23.05
2022-09-06T19:59:02.798Z,22.96
2022-09-06T20:01:33.505Z,22.71
2022-09-06T20:04:03.037Z,22.81
2022-09-06T20:06:31.680Z,22.88
2022-09-06T20:09:00.998Z,22.93
2022-09-06T20:11:32.410Z,22.94
2022-09-06T20:14:01.028Z,22.89
2022-09-06T20:16:28.751Z,22.92
2022-09-06T20:19:02.071Z,22.91
2022-09-06T20:21:31.309Z,22.83
2022-09-06T20:23:59.389Z,22.71
2022-09-06T20:26:34.416Z,22.54
2022-09-06T20:29:03.636Z,22.51
2022-09-06T20:31:32.895Z,22.39
2022-09-06T20:34:02.310Z,22.43
2022-09-06T20:36:30.875Z,22.48
2022-09-06T20:38:58.466Z,22.49
2022-09-06T20:41:26.836Z,22.30
2022-09-06T20:43:56.419Z,22.32
2022-09-06T20:46:26.549Z,22.15
2022-09-06T20:48:57.557Z,21.96
2022-09-06T20:51:25.868Z,22.06
2022-09-06T20:53:57.239Z,22.20
2022-09-06T20:56:27.392Z,22.19
2022-09-06T20:58:58.232Z,22.20
2022-09-06T21:01:28.604Z,22.19
2022-09-06T21:03:58.577Z,22.21
2022-09-06T21:06:31.123Z,22.28
2022-09-06T21:09:00.118Z,22.30
2022-09-06T21:11:27.064Z,22.24
2022-09-06T21:13:56.556Z,22.16
2022-09-06T21:16:26.632Z,22.11
2022-09-06T21:18:56.207Z,22.09
2022-09-06T21:21:26.213Z,21.97
2022-09-06T21:23:53.722Z,22.01
2022-09-06T21:26:23.020Z,22.08
2022-09-06T21:28:50.419Z,22.03
2022-09-06T21:31:21.293Z,22.01
2022-09-06T21:33:50.587Z,22.05
2022-09-06T21:36:21.347Z,22.10
2022-09-06T21:38:50.662Z,22.07
2022-09-06T21:41:19.856Z,22.00
2022-09-06T21:43:52.443Z,21.78
2022-09-06T21:46:22.671Z,21.62
2022-09-06T21:48:59.947Z,21.52
2022-09-06T21:51:28.737Z,21.53
2022-09-06T21:53:56.563Z,21.55
2022-09-06T21:56:24.756Z,21.60
2022-09-06T21:58:55.243Z,21.63
2022-09-06T22:01:23.172Z,21.67
2022-09-06T22:03:50.676Z,21.68
2022-09-06T22:06:20.871Z,21.43
2022-09-06T22:08:48.802Z,21.20
2022-09-06T22:11:27.507Z,21.15
2022-09-06T22:13:59.059Z,21.20
2022-09-06T22:16:26.700Z,21.31
2022-09-06T22:18:53.870Z,21.35
2022-09-06T22:21:21.755Z,21.46
2022-09-06T22:23:54.186Z,21.52
2022-09-06T22:26:26.499Z,21.59
2022-09-06T22:28:57.652Z,21.62
2022-09-06T22:31:26.539Z,21.65
2022-09-06T22:33:54.672Z,21.66
2022-09-06T22:36:22.571Z,21.61
2022-09-06T22:38:49.992Z,21.60
2022-09-06T22:41:25.081Z,21.65
2022-09-06T22:43:52.767Z,21.68
2022-09-06T22:46:21.745Z,21.71
2022-09-06T22:48:49.109Z,21.61
2022-09-06T22:51:18.944Z,21.51
2022-09-06T22:53:48.230Z,21.49
2022-09-06T22:56:15.219Z,21.58
2022-09-06T22:58:42.559Z,21.62
2022-09-06T23:01:14.727Z,21.65
2022-09-06T23:03:44.717Z,21.56
2022-09-06T23:06:12.238Z,21.31
2022-09-06T23:08:40.770Z,21.37
2022-09-06T23:11:10.461Z,21.31
2022-09-06T23:13:38.564Z,21.33
2022-09-06T23:16:08.123Z,21.28
2022-09-06T23:18:35.498Z,21.30
2022-09-06T23:21:10.431Z,21.26
2022-09-06T23:23:40.156Z,21.29
2022-09-06T23:26:10.281Z,21.24
2022-09-06T23:28:40.718Z,21.20
2022-09-06T23:31:11.520Z,21.25
2022-09-06T23:33:39.798Z,21.37
2022-09-06T23:36:12.537Z,21.40
2022-09-06T23:38:41.558Z,21.44
2022-09-06T23:41:11.535Z,21.44
2022-09-06T23:43:40.637Z,21.40
2022-09-06T23:46:12.020Z,21.47
2022-09-06T23:48:39.442Z,21.50
2022-09-06T23:51:08.384Z,21.50
2022-09-06T23:53:38.865Z,21.48
2022-09-06T23:56:06.923Z,21.43
2022-09-06T23:58:34.477Z,21.40
